sensor_id;sensor_type;location;lat;lon;timestamp;temperature;humidity
25360;DHT22;13311;51.386;0.016;2022-12-18T00:00:03;2.80;99.90
25360;DHT22;13311;51.386;0.016;2022-12-18T00:05:05;2.80;99.90
25360;DHT22;13311;51.386;0.016;2022-12-18T00:10:07;2.80;99.90
25360;DHT22;13311;51.386;0.016;2022-12-18T00:15:08;2.80;99.90
25360;DHT22;13311;51.386;0.016;2022-12-18T00:20:09;2.80;99.90
25360;DHT22;13311;51.386;0.016;2022-12-18T00:25:10;2.80;99.90
25360;DHT22;13311;51.386;0.016;2022-12-18T00:30:11;2.70;99.90
25360;DHT22;13311;51.386;0.016;2022-12-18T00:35:12;2.80;99.90
25360;DHT22;13311;51.386;0.016;2022-12-18T00:40:13;2.80;99.90
25360;DHT22;13311;51.386;0.016;2022-12-18T00:45:14;2.80;99.90
25360;DHT22;13311;51.386;0.016;2022-12-18T00:50:15;2.80;99.90
25360;DHT22;13311;51.386;0.016;2022-12-18T00:55:16;2.80;99.90
25360;DHT22;13311;51.386;0.016;2022-12-18T01:00:17;2.70;99.90
25360;DHT22;13311;51.386;0.016;2022-12-18T01:05:18;2.70;99.90
25360;DHT22;13311;51.386;0.016;2022-12-18T01:10:20;2.70;99.90
25360;DHT22;13311;51.386;0.016;2022-12-18T01:15:20;2.60;99.90
25360;DHT22;13311;51.386;0.016;2022-12-18T01:20:21;2.60;99.90
25360;DHT22;13311;51.386;0.016;2022-12-18T01:25:22;2.60;99.90
25360;DHT22;13311;51.386;0.016;2022-12-18T01:30:23;2.50;99.90
25360;DHT22;13311;51.386;0.016;2022-12-18T01:35:23;2.50;99.90
25360;DHT22;13311;51.386;0.016;2022-12-18T01:40:24;2.50;99.90
25360;DHT22;13311;51.386;0.016;2022-12-18T01:45:30;2.50;99.90
25360;DHT22;13311;51.386;0.016;2022-12-18T01:50:38;2.50;99.90
25360;DHT22;13311;51.386;0.016;2022-12-18T01:55:46;2.40;99.90
25360;DHT22;13311;51.386;0.016;2022-12-18T02:00:54;2.40;99.90
25360;DHT22;13311;51.386;0.016;2022-12-18T02:06:33;2.40;99.90
25360;DHT22;13311;51.386;0.016;2022-12-18T02:11:57;2.50;99.90
25360;DHT22;13311;51.386;0.016;2022-12-18T02:17:14;2.50;99.90
25360;DHT22;13311;51.386;0.016;2022-12-18T02:22:35;2.50;99.90
25360;DHT22;13311;51.386;0.016;2022-12-18T02:28:01;2.40;99.90
25360;DHT22;13311;51.386;0.016;2022-12-18T02:33:06;2.40;99.90
25360;DHT22;13311;51.386;0.016;2022-12-18T02:38:09;2.30;99.90
25360;DHT22;13311;51.386;0.016;2022-12-18T02:43:13;2.30;99.90
25360;DHT22;13311;51.386;0.016;2022-12-18T02:48:22;2.30;99.90
25360;DHT22;13311;51.386;0.016;2022-12-18T02:59:07;2.40;99.90
25360;DHT22;13311;51.386;0.016;2022-12-18T03:04:38;2.40;99.90
25360;DHT22;13311;51.386;0.016;2022-12-18T03:09:47;2.40;99.90
25360;DHT22;13311;51.386;0.016;2022-12-18T03:15:11;2.30;99.90
25360;DHT22;13311;51.386;0.016;2022-12-18T03:20:21;2.20;99.90
25360;DHT22;13311;51.386;0.016;2022-12-18T03:25:25;2.20;99.90
25360;DHT22;13311;51.386;0.016;2022-12-18T03:30:29;2.10;99.90
25360;DHT22;13311;51.386;0.016;2022-12-18T03:35:35;2.10;99.90
25360;DHT22;13311;51.386;0.016;2022-12-18T03:45:54;2.00;99.90
25360;DHT22;13311;51.386;0.016;2022-12-18T03:51:09;1.90;99.90
25360;DHT22;13311;51.386;0.016;2022-12-18T03:56:18;1.80;99.90
25360;DHT22;13311;51.386;0.016;2022-12-18T04:01:25;1.80;99.90
25360;DHT22;13311;51.386;0.016;2022-12-18T04:06:31;1.80;99.90
25360;DHT22;13311;51.386;0.016;2022-12-18T04:11:32;1.70;99.90
25360;DHT22;13311;51.386;0.016;2022-12-18T04:16:33;1.60;99.90
25360;DHT22;13311;51.386;0.016;2022-12-18T04:21:36;1.60;99.90
25360;DHT22;13311;51.386;0.016;2022-12-18T04:26:37;1.60;99.90
25360;DHT22;13311;51.386;0.016;2022-12-18T04:31:38;1.80;99.90
25360;DHT22;13311;51.386;0.016;2022-12-18T04:36:39;1.70;99.90
25360;DHT22;13311;51.386;0.016;2022-12-18T04:41:40;1.80;99.90
25360;DHT22;13311;51.386;0.016;2022-12-18T04:46:42;1.90;99.90
25360;DHT22;13311;51.386;0.016;2022-12-18T04:51:42;1.90;99.90
25360;DHT22;13311;51.386;0.016;2022-12-18T04:56:43;2.00;99.90
25360;DHT22;13311;51.386;0.016;2022-12-18T05:01:44;2.10;99.90
25360;DHT22;13311;51.386;0.016;2022-12-18T05:06:46;2.10;99.90
25360;DHT22;13311;51.386;0.016;2022-12-18T05:11:46;2.20;99.90
25360;DHT22;13311;51.386;0.016;2022-12-18T05:16:47;2.20;99.90
25360;DHT22;13311;51.386;0.016;2022-12-18T05:21:48;2.30;99.90
25360;DHT22;13311;51.386;0.016;2022-12-18T05:26:48;2.30;99.90
25360;DHT22;13311;51.386;0.016;2022-12-18T05:31:49;2.10;99.90
25360;DHT22;13311;51.386;0.016;2022-12-18T05:36:50;2.10;99.90
25360;DHT22;13311;51.386;0.016;2022-12-18T05:41:51;2.00;99.90
25360;DHT22;13311;51.386;0.016;2022-12-18T05:46:51;2.00;99.90
25360;DHT22;13311;51.386;0.016;2022-12-18T05:51:52;2.00;99.90
25360;DHT22;13311;51.386;0.016;2022-12-18T05:56:53;2.00;99.90
25360;DHT22;13311;51.386;0.016;2022-12-18T06:01:57;2.00;99.90
25360;DHT22;13311;51.386;0.016;2022-12-18T06:06:57;2.10;99.90
25360;DHT22;13311;51.386;0.016;2022-12-18T06:11:58;2.20;99.90
25360;DHT22;13311;51.386;0.016;2022-12-18T06:17:00;2.30;99.90
25360;DHT22;13311;51.386;0.016;2022-12-18T06:22:00;2.30;99.90
25360;DHT22;13311;51.386;0.016;2022-12-18T06:27:01;2.30;99.90
25360;DHT22;13311;51.386;0.016;2022-12-18T06:32:02;2.40;99.90
25360;DHT22;13311;51.386;0.016;2022-12-18T06:37:03;2.50;99.90
25360;DHT22;13311;51.386;0.016;2022-12-18T06:42:04;2.40;99.90
25360;DHT22;13311;51.386;0.016;2022-12-18T06:47:05;2.40;99.90
25360;DHT22;13311;51.386;0.016;2022-12-18T06:52:06;2.50;99.90
25360;DHT22;13311;51.386;0.016;2022-12-18T06:57:07;2.40;99.90
25360;DHT22;13311;51.386;0.016;2022-12-18T07:02:11;2.40;99.90
25360;DHT22;13311;51.386;0.016;2022-12-18T07:07:12;2.50;99.90
25360;DHT22;13311;51.386;0.016;2022-12-18T07:12:13;2.70;99.90
25360;DHT22;13311;51.386;0.016;2022-12-18T07:17:14;2.70;99.90
25360;DHT22;13311;51.386;0.016;2022-12-18T07:22:15;2.70;99.90
25360;DHT22;13311;51.386;0.016;2022-12-18T07:27:16;2.70;99.90
25360;DHT22;13311;51.386;0.016;2022-12-18T07:32:17;2.70;99.90
25360;DHT22;13311;51.386;0.016;2022-12-18T07:37:18;2.80;99.90
25360;DHT22;13311;51.386;0.016;2022-12-18T07:42:19;2.90;99.90
25360;DHT22;13311;51.386;0.016;2022-12-18T07:47:34;2.80;99.90
25360;DHT22;13311;51.386;0.016;2022-12-18T07:52:36;2.80;99.90
25360;DHT22;13311;51.386;0.016;2022-12-18T07:57:37;2.90;99.90
25360;DHT22;13311;51.386;0.016;2022-12-18T08:02:38;3.00;99.90
25360;DHT22;13311;51.386;0.016;2022-12-18T08:07:39;2.90;99.90
25360;DHT22;13311;51.386;0.016;2022-12-18T08:12:40;2.90;99.90
25360;DHT22;13311;51.386;0.016;2022-12-18T08:17:44;2.90;99.90
25360;DHT22;13311;51.386;0.016;2022-12-18T08:22:45;3.00;99.90
25360;DHT22;13311;51.386;0.016;2022-12-18T08:27:45;3.00;99.90
25360;DHT22;13311;51.386;0.016;2022-12-18T08:32:46;3.10;99.90
25360;DHT22;13311;51.386;0.016;2022-12-18T08:37:47;3.10;99.90
25360;DHT22;13311;51.386;0.016;2022-12-18T08:42:48;3.10;99.90
25360;DHT22;13311;51.386;0.016;2022-12-18T08:48:07;3.30;99.90
25360;DHT22;13311;51.386;0.016;2022-12-18T08:53:08;3.30;99.90
25360;DHT22;13311;51.386;0.016;2022-12-18T08:58:09;3.20;99.90
25360;DHT22;13311;51.386;0.016;2022-12-18T09:03:15;3.30;99.90
25360;DHT22;13311;51.386;0.016;2022-12-18T09:08:16;3.40;99.90
25360;DHT22;13311;51.386;0.016;2022-12-18T09:13:18;3.50;99.90
25360;DHT22;13311;51.386;0.016;2022-12-18T09:18:20;3.60;99.90
25360;DHT22;13311;51.386;0.016;2022-12-18T09:23:22;3.70;99.90
25360;DHT22;13311;51.386;0.016;2022-12-18T09:28:22;3.60;99.90
25360;DHT22;13311;51.386;0.016;2022-12-18T09:33:23;3.60;99.90
25360;DHT22;13311;51.386;0.016;2022-12-18T09:38:24;3.60;99.90
25360;DHT22;13311;51.386;0.016;2022-12-18T09:43:41;3.70;99.90
25360;DHT22;13311;51.386;0.016;2022-12-18T09:48:49;3.90;99.90
25360;DHT22;13311;51.386;0.016;2022-12-18T09:54:02;3.90;99.90
25360;DHT22;13311;51.386;0.016;2022-12-18T09:59:05;4.00;99.90
25360;DHT22;13311;51.386;0.016;2022-12-18T10:04:08;4.00;99.90
25360;DHT22;13311;51.386;0.016;2022-12-18T10:14:49;4.10;99.90
25360;DHT22;13311;51.386;0.016;2022-12-18T10:20:13;4.20;99.90
25360;DHT22;13311;51.386;0.016;2022-12-18T10:25:27;4.20;99.90
25360;DHT22;13311;51.386;0.016;2022-12-18T10:30:33;4.20;99.90
25360;DHT22;13311;51.386;0.016;2022-12-18T10:35:36;4.30;99.90
25360;DHT22;13311;51.386;0.016;2022-12-18T10:46:15;4.30;99.90
25360;DHT22;13311;51.386;0.016;2022-12-18T10:51:34;4.40;99.90
25360;DHT22;13311;51.386;0.016;2022-12-18T10:56:36;4.40;99.90
25360;DHT22;13311;51.386;0.016;2022-12-18T11:01:57;4.50;99.90
25360;DHT22;13311;51.386;0.016;2022-12-18T11:07:02;4.40;99.90
25360;DHT22;13311;51.386;0.016;2022-12-18T11:12:19;4.50;99.90
25360;DHT22;13311;51.386;0.016;2022-12-18T11:17:31;4.40;99.90
25360;DHT22;13311;51.386;0.016;2022-12-18T11:22:36;4.60;99.90
25360;DHT22;13311;51.386;0.016;2022-12-18T11:27:38;4.70;99.90
25360;DHT22;13311;51.386;0.016;2022-12-18T11:32:42;4.70;99.90
25360;DHT22;13311;51.386;0.016;2022-12-18T11:37:56;4.80;99.90
25360;DHT22;13311;51.386;0.016;2022-12-18T11:43:09;4.90;99.90
25360;DHT22;13311;51.386;0.016;2022-12-18T11:48:58;4.70;99.90
25360;DHT22;13311;51.386;0.016;2022-12-18T11:54:13;4.70;99.90
25360;DHT22;13311;51.386;0.016;2022-12-18T11:59:41;4.50;99.90
25360;DHT22;13311;51.386;0.016;2022-12-18T12:10:51;4.40;99.90
25360;DHT22;13311;51.386;0.016;2022-12-18T12:16:08;4.40;99.90
25360;DHT22;13311;51.386;0.016;2022-12-18T12:21:41;4.30;99.90
25360;DHT22;13311;51.386;0.016;2022-12-18T12:43:44;4.20;99.90
25360;DHT22;13311;51.386;0.016;2022-12-18T12:48:50;4.10;99.90
25360;DHT22;13311;51.386;0.016;2022-12-18T12:53:54;4.20;99.90
25360;DHT22;13311;51.386;0.016;2022-12-18T13:04:39;4.30;99.90
25360;DHT22;13311;51.386;0.016;2022-12-18T13:15:32;4.40;99.90
25360;DHT22;13311;51.386;0.016;2022-12-18T13:25:46;4.60;99.90
25360;DHT22;13311;51.386;0.016;2022-12-18T13:30:49;4.60;99.90
25360;DHT22;13311;51.386;0.016;2022-12-18T13:35:53;4.70;99.90
25360;DHT22;13311;51.386;0.016;2022-12-18T13:46:19;4.60;99.90
25360;DHT22;13311;51.386;0.016;2022-12-18T13:51:30;4.50;99.90
25360;DHT22;13311;51.386;0.016;2022-12-18T13:56:33;4.50;99.90
25360;DHT22;13311;51.386;0.016;2022-12-18T14:01:34;4.40;99.90
25360;DHT22;13311;51.386;0.016;2022-12-18T14:06:35;4.40;99.90
25360;DHT22;13311;51.386;0.016;2022-12-18T14:11:37;4.50;99.90
25360;DHT22;13311;51.386;0.016;2022-12-18T14:16:40;4.50;99.90
25360;DHT22;13311;51.386;0.016;2022-12-18T14:21:47;4.60;99.90
25360;DHT22;13311;51.386;0.016;2022-12-18T14:26:49;4.60;99.90
25360;DHT22;13311;51.386;0.016;2022-12-18T14:32:15;4.60;99.90
25360;DHT22;13311;51.386;0.016;2022-12-18T14:37:22;4.70;99.90
25360;DHT22;13311;51.386;0.016;2022-12-18T14:42:26;4.70;99.90
25360;DHT22;13311;51.386;0.016;2022-12-18T14:47:28;4.70;99.90
25360;DHT22;13311;51.386;0.016;2022-12-18T14:52:31;4.70;99.90
25360;DHT22;13311;51.386;0.016;2022-12-18T14:57:36;4.80;99.90
25360;DHT22;13311;51.386;0.016;2022-12-18T15:02:38;4.80;99.90
25360;DHT22;13311;51.386;0.016;2022-12-18T15:07:44;4.80;99.90
25360;DHT22;13311;51.386;0.016;2022-12-18T15:12:49;4.80;99.90
25360;DHT22;13311;51.386;0.016;2022-12-18T15:18:10;4.90;99.90
25360;DHT22;13311;51.386;0.016;2022-12-18T15:38:54;5.10;99.90
25360;DHT22;13311;51.386;0.016;2022-12-18T15:43:55;5.20;99.90
25360;DHT22;13311;51.386;0.016;2022-12-18T15:48:57;5.30;99.90
25360;DHT22;13311;51.386;0.016;2022-12-18T15:54:01;5.40;99.90
25360;DHT22;13311;51.386;0.016;2022-12-18T15:59:12;5.40;99.90
25360;DHT22;13311;51.386;0.016;2022-12-18T16:04:16;5.40;99.90
25360;DHT22;13311;51.386;0.016;2022-12-18T16:09:20;5.50;99.90
25360;DHT22;13311;51.386;0.016;2022-12-18T16:14:28;5.50;99.90
25360;DHT22;13311;51.386;0.016;2022-12-18T16:19:30;5.60;99.90
25360;DHT22;13311;51.386;0.016;2022-12-18T16:24:33;5.70;99.90
25360;DHT22;13311;51.386;0.016;2022-12-18T16:29:33;5.80;99.90
25360;DHT22;13311;51.386;0.016;2022-12-18T16:34:34;5.90;99.90
25360;DHT22;13311;51.386;0.016;2022-12-18T16:39:36;6.00;99.90
25360;DHT22;13311;51.386;0.016;2022-12-18T16:44:38;6.10;99.90
25360;DHT22;13311;51.386;0.016;2022-12-18T16:49:39;6.10;99.90
25360;DHT22;13311;51.386;0.016;2022-12-18T16:54:39;6.20;99.90
25360;DHT22;13311;51.386;0.016;2022-12-18T16:59:40;6.40;99.90
25360;DHT22;13311;51.386;0.016;2022-12-18T17:04:42;6.60;99.90
25360;DHT22;13311;51.386;0.016;2022-12-18T17:09:44;6.60;99.90
25360;DHT22;13311;51.386;0.016;2022-12-18T17:14:44;6.70;99.90
25360;DHT22;13311;51.386;0.016;2022-12-18T17:19:45;6.80;99.90
25360;DHT22;13311;51.386;0.016;2022-12-18T17:24:46;6.80;99.90
25360;DHT22;13311;51.386;0.016;2022-12-18T17:29:47;6.90;99.90
25360;DHT22;13311;51.386;0.016;2022-12-18T17:34:47;6.90;99.90
25360;DHT22;13311;51.386;0.016;2022-12-18T17:39:48;7.00;99.90
25360;DHT22;13311;51.386;0.016;2022-12-18T17:44:49;7.00;99.90
25360;DHT22;13311;51.386;0.016;2022-12-18T17:49:49;7.00;99.90
25360;DHT22;13311;51.386;0.016;2022-12-18T17:54:51;6.90;99.90
25360;DHT22;13311;51.386;0.016;2022-12-18T17:59:52;7.00;99.90
25360;DHT22;13311;51.386;0.016;2022-12-18T18:04:52;7.00;99.90
25360;DHT22;13311;51.386;0.016;2022-12-18T18:09:53;7.00;99.90
25360;DHT22;13311;51.386;0.016;2022-12-18T18:14:54;7.10;99.90
25360;DHT22;13311;51.386;0.016;2022-12-18T18:19:55;7.20;99.90
25360;DHT22;13311;51.386;0.016;2022-12-18T18:24:57;7.20;99.90
25360;DHT22;13311;51.386;0.016;2022-12-18T18:29:57;7.20;99.90
25360;DHT22;13311;51.386;0.016;2022-12-18T18:34:58;7.30;99.90
25360;DHT22;13311;51.386;0.016;2022-12-18T18:40:02;7.30;99.90
25360;DHT22;13311;51.386;0.016;2022-12-18T18:45:03;7.40;99.90
25360;DHT22;13311;51.386;0.016;2022-12-18T18:50:04;7.40;99.90
25360;DHT22;13311;51.386;0.016;2022-12-18T18:55:06;7.50;99.90
25360;DHT22;13311;51.386;0.016;2022-12-18T19:00:08;7.50;99.90
25360;DHT22;13311;51.386;0.016;2022-12-18T19:05:09;7.50;99.90
25360;DHT22;13311;51.386;0.016;2022-12-18T19:10:10;7.50;99.90
25360;DHT22;13311;51.386;0.016;2022-12-18T19:15:10;7.50;99.90
25360;DHT22;13311;51.386;0.016;2022-12-18T19:20:11;7.60;99.90
25360;DHT22;13311;51.386;0.016;2022-12-18T19:25:12;7.60;99.90
25360;DHT22;13311;51.386;0.016;2022-12-18T19:30:14;7.60;99.90
25360;DHT22;13311;51.386;0.016;2022-12-18T19:35:16;7.60;99.90
25360;DHT22;13311;51.386;0.016;2022-12-18T19:40:17;7.60;99.90
25360;DHT22;13311;51.386;0.016;2022-12-18T19:45:17;7.70;99.90
25360;DHT22;13311;51.386;0.016;2022-12-18T19:50:19;7.70;99.90
25360;DHT22;13311;51.386;0.016;2022-12-18T19:55:20;7.80;99.90
25360;DHT22;13311;51.386;0.016;2022-12-18T20:00:20;7.90;99.90
25360;DHT22;13311;51.386;0.016;2022-12-18T20:05:21;7.90;99.90
25360;DHT22;13311;51.386;0.016;2022-12-18T20:10:24;8.00;99.90
25360;DHT22;13311;51.386;0.016;2022-12-18T20:15:25;8.10;99.90
25360;DHT22;13311;51.386;0.016;2022-12-18T20:20:26;8.20;99.90
25360;DHT22;13311;51.386;0.016;2022-12-18T20:25:27;8.30;99.90
25360;DHT22;13311;51.386;0.016;2022-12-18T20:30:27;8.40;99.90
25360;DHT22;13311;51.386;0.016;2022-12-18T20:35:31;8.40;99.90
25360;DHT22;13311;51.386;0.016;2022-12-18T20:40:32;8.50;99.90
25360;DHT22;13311;51.386;0.016;2022-12-18T20:45:33;8.50;99.90
25360;DHT22;13311;51.386;0.016;2022-12-18T20:50:34;8.60;99.90
25360;DHT22;13311;51.386;0.016;2022-12-18T20:55:40;8.60;99.90
25360;DHT22;13311;51.386;0.016;2022-12-18T21:00:41;8.70;99.90
25360;DHT22;13311;51.386;0.016;2022-12-18T21:05:42;8.80;99.90
25360;DHT22;13311;51.386;0.016;2022-12-18T21:10:42;8.90;99.90
25360;DHT22;13311;51.386;0.016;2022-12-18T21:15:43;8.90;99.90
25360;DHT22;13311;51.386;0.016;2022-12-18T21:20:44;9.00;99.90
25360;DHT22;13311;51.386;0.016;2022-12-18T21:25:45;9.00;99.90
25360;DHT22;13311;51.386;0.016;2022-12-18T21:30:46;9.00;99.90
25360;DHT22;13311;51.386;0.016;2022-12-18T21:35:47;9.10;99.90
25360;DHT22;13311;51.386;0.016;2022-12-18T21:40:48;9.10;99.90
25360;DHT22;13311;51.386;0.016;2022-12-18T21:45:49;9.20;99.90
25360;DHT22;13311;51.386;0.016;2022-12-18T21:50:49;9.30;99.90
25360;DHT22;13311;51.386;0.016;2022-12-18T21:55:59;9.20;99.90
25360;DHT22;13311;51.386;0.016;2022-12-18T22:01:01;9.40;99.90
25360;DHT22;13311;51.386;0.016;2022-12-18T22:06:01;9.40;99.90
25360;DHT22;13311;51.386;0.016;2022-12-18T22:11:02;9.40;99.90
25360;DHT22;13311;51.386;0.016;2022-12-18T22:16:04;9.50;99.90
25360;DHT22;13311;51.386;0.016;2022-12-18T22:21:05;9.50;99.90
25360;DHT22;13311;51.386;0.016;2022-12-18T22:26:07;9.50;99.90
25360;DHT22;13311;51.386;0.016;2022-12-18T22:31:08;9.50;99.90
25360;DHT22;13311;51.386;0.016;2022-12-18T22:36:09;9.60;99.90
25360;DHT22;13311;51.386;0.016;2022-12-18T22:41:10;9.70;99.90
25360;DHT22;13311;51.386;0.016;2022-12-18T22:46:14;9.70;99.90
25360;DHT22;13311;51.386;0.016;2022-12-18T22:51:17;9.80;99.90
25360;DHT22;13311;51.386;0.016;2022-12-18T22:56:18;9.80;99.90
25360;DHT22;13311;51.386;0.016;2022-12-18T23:01:22;9.90;99.90
25360;DHT22;13311;51.386;0.016;2022-12-18T23:06:26;10.00;99.90
25360;DHT22;13311;51.386;0.016;2022-12-18T23:11:27;10.00;99.90
25360;DHT22;13311;51.386;0.016;2022-12-18T23:16:28;10.10;99.90
25360;DHT22;13311;51.386;0.016;2022-12-18T23:21:28;10.20;99.90
25360;DHT22;13311;51.386;0.016;2022-12-18T23:26:29;10.20;99.90
25360;DHT22;13311;51.386;0.016;2022-12-18T23:31:37;10.30;99.90
25360;DHT22;13311;51.386;0.016;2022-12-18T23:36:38;10.40;99.90
25360;DHT22;13311;51.386;0.016;2022-12-18T23:41:38;10.50;99.90
25360;DHT22;13311;51.386;0.016;2022-12-18T23:46:39;10.60;99.90
25360;DHT22;13311;51.386;0.016;2022-12-18T23:51:41;10.70;99.90
25360;DHT22;13311;51.386;0.016;2022-12-18T23:56:42;10.80;99.90
